Time;durP1;ratioP1;P1;durP2;ratioP2;P2;SDS_P1;SDS_P2;PMS_P1;PMS_P2;Temp;Humidity;BMP_temperature;BMP_pressure;BME280_temperature;BME280_humidity;BME280_pressure;Samples;Min_cycle;Max_cycle;Signal;HPM_P1;HPM_P2
2024/02/17 00:01:44;;;;;;;;;;;;;;;-144.99;100.00;67352.69;5054352;28;20294;-78
2024/02/17 00:04:09;;;;;;;;;;;;;;;-144.99;100.00;67352.69;5054409;28;19913;-78
2024/02/17 00:06:35;;;;;;;;;;;;;;;-144.99;100.00;67352.69;5052269;28;19916;-79
2024/02/17 00:09:00;;;;;;;;;;;;;;;-144.99;100.00;67352.69;5054664;28;19913;-78
2024/02/17 00:11:25;;;;;;;;;;;;;;;-144.99;100.00;67352.69;5052903;28;19956;-79
2024/02/17 00:13:51;;;;;;;;;;;;;;;-144.99;100.00;67352.69;5052725;28;19952;-78
2024/02/17 00:16:16;;;;;;;;;;;;;;;-144.99;100.00;67352.69;5053057;28;19919;-79
2024/02/17 00:18:41;;;;;;;;;;;;;;;-144.99;100.00;67352.69;5052763;28;19942;-79
2024/02/17 00:21:07;;;;;;;;;;;;;;;-144.99;100.00;67352.69;5044491;28;19942;-79
2024/02/17 00:23:32;;;;;;;;;;;;;;;-144.99;100.00;67352.69;5053742;28;19913;-80
2024/02/17 00:25:58;;;;;;;;;;;;;;;-144.99;100.00;67352.69;5051416;28;20011;-79
2024/02/17 00:28:26;;;;;;;;;;;;;;;-144.99;100.00;67352.69;5052382;28;19924;-79
2024/02/17 00:30:52;;;;;;;;;;;;;;;-144.99;100.00;67352.69;5053682;28;19920;-79
2024/02/17 00:33:17;;;;;;;;;;;;;;;-144.99;100.00;67352.69;5051974;28;20003;-79
2024/02/17 00:35:43;;;;;;;;;;;;;;;-144.99;100.00;67352.69;5052024;28;19938;-78
2024/02/17 00:38:08;;;;;;;;;;;;;;;-144.99;100.00;67352.69;5051719;28;20004;-79
2024/02/17 00:40:33;;;;;;;;;;;;;;;-144.99;100.00;67352.69;5053225;28;19917;-79
2024/02/17 00:42:58;;;;;;;;;;;;;;;-144.99;100.00;67352.69;5050088;28;20347;-81
2024/02/17 00:45:24;;;;;;;;;;;;;;;-144.99;100.00;67352.69;5051807;28;19913;-81
2024/02/17 00:47:49;;;;;;;;;;;;;;;-144.99;100.00;67352.69;5052459;28;20016;-81
2024/02/17 00:50:14;;;;;;;;;;;;;;;-144.99;100.00;67352.69;5053550;28;20103;-81
2024/02/17 00:52:39;;;;;;;;;;;;;;;-144.99;100.00;67352.69;5053310;28;19913;-81
2024/02/17 00:55:04;;;;;;;;;;;;;;;-144.99;100.00;67352.69;5055384;28;20449;-81
2024/02/17 00:57:30;;;;;;;;;;;;;;;-144.99;100.00;67352.69;5055190;28;19920;-78
2024/02/17 00:59:55;;;;;;;;;;;;;;;-144.99;100.00;67352.69;5057331;28;19920;-80
2024/02/17 01:02:20;;;;;;;;;;;;;;;-144.99;100.00;67352.69;5056451;28;20445;-81
2024/02/17 01:04:45;;;;;;;;;;;;;;;-144.99;100.00;67352.69;5056475;28;20011;-81
2024/02/17 01:07:10;;;;;;;;;;;;;;;-144.99;100.00;67352.69;5054775;28;19921;-81
2024/02/17 01:09:36;;;;;;;;;;;;;;;-144.99;100.00;67352.69;5055412;28;19916;-81
2024/02/17 01:12:01;;;;;;;;;;;;;;;-144.99;100.00;67352.69;5056864;28;20563;-80
2024/02/17 01:14:26;;;;;;;;;;;;;;;-144.99;100.00;67352.69;5055460;28;19966;-80
2024/02/17 01:16:51;;;;;;;;;;;;;;;-144.99;100.00;67352.69;5055595;28;20509;-81
2024/02/17 01:19:16;;;;;;;;;;;;;;;-144.99;100.00;67352.69;5056654;28;19919;-80
2024/02/17 01:21:42;;;;;;;;;;;;;;;-144.99;100.00;67352.69;5056714;28;19916;-81
2024/02/17 01:24:09;;;;;;;;;;;;;;;-144.99;100.00;67352.69;5056329;28;19920;-80
2024/02/17 01:26:34;;;;;;;;;;;;;;;-144.99;100.00;67352.69;5055675;28;19920;-81
2024/02/17 01:28:59;;;;;;;;;;;;;;;-144.99;100.00;67352.69;5054815;28;19987;-81
2024/02/17 01:31:24;;;;;;;;;;;;;;;-144.99;100.00;67352.69;5055167;28;20341;-81
2024/02/17 01:33:51;;;;;;;;;;;;;;;-144.99;100.00;67352.69;5055142;28;19944;-80
2024/02/17 01:36:19;;;;;;;;;;;;;;;-144.99;100.00;67352.69;5055631;28;19920;-79
2024/02/17 01:38:45;;;;;;;;;;;;;;;-144.99;100.00;67352.69;5055210;28;19920;-81
2024/02/17 01:41:11;;;;;;;;;;;;;;;-144.99;100.00;67352.69;5056030;28;20068;-81
2024/02/17 01:43:36;;;;;;;;;;;;;;;-144.99;100.00;67352.69;5056050;28;19920;-81
2024/02/17 01:46:01;;;;;;;;;;;;;;;-144.99;100.00;67352.69;5053729;28;19964;-80
2024/02/17 01:48:27;;;;;;;;;;;;;;;-144.99;100.00;67352.69;5054663;28;19956;-78
2024/02/17 01:50:52;;;;;;;;;;;;;;;-144.99;100.00;67352.69;5054792;28;19917;-79
2024/02/17 01:53:17;;;;;;;;;;;;;;;-144.99;100.00;67352.69;5055445;28;19966;-78
2024/02/17 01:55:43;;;;;;;;;;;;;;;-144.99;100.00;67352.69;5055542;28;19920;-81
2024/02/17 01:58:09;;;;;;;;;;;;;;;-144.99;100.00;67352.69;5052684;28;19913;-81
2024/02/17 02:00:34;;;;;;;;;;;;;;;-144.99;100.00;67352.69;5049996;28;19921;-80
2024/02/17 02:03:00;;;;;;;;;;;;;;;-144.99;100.00;67352.69;5053260;28;20437;-81
2024/02/17 02:05:25;;;;;;;;;;;;;;;-144.99;100.00;67352.69;5045739;28;20503;-80
2024/02/17 02:07:50;;;;;;;;;;;;;;;-144.99;100.00;67352.69;5051987;28;19924;-81
2024/02/17 02:10:16;;;;;;;;;;;;;;;-144.99;100.00;67352.69;5056148;28;19913;-81
2024/02/17 02:12:41;;;;;;;;;;;;;;;-144.99;100.00;67352.69;5056901;28;19935;-81
2024/02/17 02:15:10;;;;;;;;;;;;;;;-144.99;100.00;67352.69;5056489;28;19913;-81
2024/02/17 02:17:35;;;;;;;;;;;;;;;-144.99;100.00;67352.69;5055667;28;19920;-80
2024/02/17 02:20:00;;;;;;;;;;;;;;;-144.99;100.00;67352.69;5054233;28;20011;-80
2024/02/17 02:22:26;;;;;;;;;;;;;;;-144.99;100.00;67352.69;5052719;28;20143;-80
2024/02/17 02:24:54;;;;;;;;;;;;;;;-144.99;100.00;67352.69;5054031;28;19963;-80
2024/02/17 02:27:19;;;;;;;;;;;;;;;-144.99;100.00;67352.69;5053067;28;20012;-80
2024/02/17 02:29:45;;;;;;;;;;;;;;;-144.99;100.00;67352.69;5053935;28;19959;-80
2024/02/17 02:32:10;;;;;;;;;;;;;;;-144.99;100.00;67352.69;5053975;28;19913;-81
2024/02/17 02:34:35;;;;;;;;;;;;;;;-144.99;100.00;67352.69;5052758;28;19912;-81
2024/02/17 02:37:01;;;;;;;;;;;;;;;-144.99;100.00;67352.69;5051703;28;20008;-80
2024/02/17 02:39:26;;;;;;;;;;;;;;;-144.99;100.00;67352.69;5054194;28;20319;-80
2024/02/17 02:41:51;;;;;;;;;;;;;;;-144.99;100.00;67352.69;5053609;28;19912;-81
2024/02/17 02:44:16;;;;;;;;;;;;;;;-144.99;100.00;67352.69;5053891;28;19913;-80
2024/02/17 02:46:42;;;;;;;;;;;;;;;-144.99;100.00;67352.69;5053146;28;19917;-81
2024/02/17 02:49:07;;;;;;;;;;;;;;;-144.99;100.00;67352.69;5052872;28;20006;-81
2024/02/17 02:51:32;;;;;;;;;;;;;;;-144.99;100.00;67352.69;5052049;28;19913;-80
2024/02/17 02:53:57;;;;;;;;;;;;;;;-144.99;100.00;67352.69;5052252;28;20410;-81
2024/02/17 02:56:23;;;;;;;;;;;;;;;-144.99;100.00;67352.69;5053377;28;19920;-80
2024/02/17 02:58:48;;;;;;;;;;;;;;;-144.99;100.00;67352.69;5052971;28;19912;-80
2024/02/17 03:01:14;;;;;;;;;;;;;;;-144.99;100.00;67352.69;5053647;28;19913;-80
2024/02/17 03:03:39;;;;;;;;;;;;;;;-144.99;100.00;67352.69;5053794;28;19940;-81
2024/02/17 03:06:04;;;;;;;;;;;;;;;-144.99;100.00;67352.69;5053277;28;20287;-81
2024/02/17 03:08:29;;;;;;;;;;;;;;;-144.99;100.00;67352.69;5053849;28;19913;-80
2024/02/17 03:10:54;;;;;;;;;;;;;;;-144.99;100.00;67352.69;5053752;28;19913;-80
2024/02/17 03:13:20;;;;;;;;;;;;;;;-144.99;100.00;67352.69;5052591;28;19972;-80
2024/02/17 03:15:45;;;;;;;;;;;;;;;-144.99;100.00;67352.69;5052429;28;20283;-80
2024/02/17 03:18:10;;;;;;;;;;;;;;;-144.99;100.00;67352.69;5053045;28;19913;-81
2024/02/17 03:20:35;;;;;;;;;;;;;;;-144.99;100.00;67352.69;5052340;28;20376;-81
2024/02/17 03:23:00;;;;;;;;;;;;;;;-144.99;100.00;67352.69;5052572;28;20303;-80
2024/02/17 03:25:26;;;;;;;;;;;;;;;-144.99;100.00;67352.69;5053600;28;20379;-81
2024/02/17 03:27:51;;;;;;;;;;;;;;;-144.99;100.00;67352.69;5051595;28;19917;-81
2024/02/17 03:30:17;;;;;;;;;;;;;;;-144.99;100.00;67352.69;5054265;28;19917;-80
2024/02/17 03:32:42;;;;;;;;;;;;;;;-144.99;100.00;67352.69;5052126;28;19947;-80
2024/02/17 03:35:08;;;;;;;;;;;;;;;-144.99;100.00;67352.69;5051324;28;19963;-80
2024/02/17 03:37:33;;;;;;;;;;;;;;;-144.99;100.00;67352.69;5051040;28;19916;-80
2024/02/17 03:39:58;;;;;;;;;;;;;;;-144.99;100.00;67352.69;5052325;28;19913;-80
2024/02/17 03:42:24;;;;;;;;;;;;;;;-144.99;100.00;67352.69;5052374;28;19958;-80
2024/02/17 03:44:49;;;;;;;;;;;;;;;-144.99;100.00;67352.69;5050610;28;19913;-80
2024/02/17 03:47:14;;;;;;;;;;;;;;;-144.99;100.00;67352.69;5051239;28;19924;-80
2024/02/17 03:49:40;;;;;;;;;;;;;;;-144.99;100.00;67352.69;5052100;28;19919;-80
2024/02/17 03:52:05;;;;;;;;;;;;;;;-144.99;100.00;67352.69;5051561;28;20302;-80
2024/02/17 03:54:30;;;;;;;;;;;;;;;-144.99;100.00;67352.69;5050679;28;19920;-80
2024/02/17 03:56:55;;;;;;;;;;;;;;;-144.99;100.00;67352.69;5049582;28;20275;-80
2024/02/17 03:59:20;;;;;;;;;;;;;;;-144.99;100.00;67352.69;5052011;28;19920;-80
2024/02/17 04:01:46;;;;;;;;;;;;;;;-144.99;100.00;67352.69;5050398;28;19912;-80
2024/02/17 04:04:11;;;;;;;;;;;;;;;-144.99;100.00;67352.69;5051806;28;19916;-80
2024/02/17 04:06:36;;;;;;;;;;;;;;;-144.99;100.00;67352.69;5050567;28;19921;-80
2024/02/17 04:09:02;;;;;;;;;;;;;;;-144.99;100.00;67352.69;5050777;28;20023;-80
2024/02/17 04:11:27;;;;;;;;;;;;;;;-144.99;100.00;67352.69;5051871;28;19920;-80
2024/02/17 04:13:53;;;;;;;;;;;;;;;-144.99;100.00;67352.69;5050216;28;19917;-80
2024/02/17 04:16:19;;;;;;;;;;;;;;;-144.99;100.00;67352.69;5050959;28;19912;-80
2024/02/17 04:18:44;;;;;;;;;;;;;;;-144.99;100.00;67352.69;5050546;28;19913;-80
2024/02/17 04:21:10;;;;;;;;;;;;;;;-144.99;100.00;67352.69;5051365;28;19913;-79
2024/02/17 04:23:35;;;;;;;;;;;;;;;-144.99;100.00;67352.69;5050305;28;19913;-80
2024/02/17 04:26:03;;;;;;;;;;;;;;;-144.99;100.00;67352.69;5050921;28;19959;-79
2024/02/17 04:28:28;;;;;;;;;;;;;;;-144.99;100.00;67352.69;5051429;28;19917;-80
2024/02/17 04:30:53;;;;;;;;;;;;;;;-144.99;100.00;67352.69;5049225;28;19944;-80
2024/02/17 04:33:19;;;;;;;;;;;;;;;-144.99;100.00;67352.69;5053793;28;19913;-80
2024/02/17 04:35:44;;;;;;;;;;;;;;;-144.99;100.00;67352.69;5053776;28;20006;-80
2024/02/17 04:38:09;;;;;;;;;;;;;;;-144.99;100.00;67352.69;5053433;28;20417;-80
2024/02/17 04:40:35;;;;;;;;;;;;;;;-144.99;100.00;67352.69;5055531;28;20307;-80
2024/02/17 04:43:00;;;;;;;;;;;;;;;-144.99;100.00;67352.69;5055205;28;19920;-80
2024/02/17 04:45:26;;;;;;;;;;;;;;;-144.99;100.00;67352.69;5053474;28;19962;-80
2024/02/17 04:47:51;;;;;;;;;;;;;;;-144.99;100.00;67352.69;5052213;28;19920;-80
2024/02/17 04:50:17;;;;;;;;;;;;;;;-144.99;100.00;67352.69;5050486;28;19935;-80
2024/02/17 04:52:42;;;;;;;;;;;;;;;-144.99;100.00;67352.69;5053893;28;19916;-80
2024/02/17 04:55:07;;;;;;;;;;;;;;;-144.99;100.00;67352.69;5055285;28;19948;-80
2024/02/17 04:57:32;;;;;;;;;;;;;;;-144.99;100.00;67352.69;5057273;28;19913;-81
2024/02/17 04:59:58;;;;;;;;;;;;;;;-144.99;100.00;67352.69;5058444;28;19913;-81
2024/02/17 05:02:23;;;;;;;;;;;;;;;-144.99;100.00;67352.69;5058146;28;19942;-81
2024/02/17 05:04:48;;;;;;;;;;;;;;;-144.99;100.00;67352.69;5059758;28;19917;-81
2024/02/17 05:07:14;;;;;;;;;;;;;;;-144.99;100.00;67352.69;5056678;28;19923;-81
2024/02/17 05:09:39;;;;;;;;;;;;;;;-144.99;100.00;67352.69;5058470;28;19913;-81
2024/02/17 05:12:04;;;;;;;;;;;;;;;-144.99;100.00;67352.69;5057492;28;19916;-81
2024/02/17 05:14:29;;;;;;;;;;;;;;;-144.99;100.00;67352.69;5058776;28;19963;-81
2024/02/17 05:16:55;;;;;;;;;;;;;;;-144.99;100.00;67352.69;5057526;28;19913;-81
2024/02/17 05:19:20;;;;;;;;;;;;;;;-144.99;100.00;67352.69;5057232;28;19913;-81
2024/02/17 05:21:45;;;;;;;;;;;;;;;-144.99;100.00;67352.69;5056719;28;20007;-81
2024/02/17 05:24:11;;;;;;;;;;;;;;;-144.99;100.00;67352.69;5056981;28;19925;-81
2024/02/17 05:26:37;;;;;;;;;;;;;;;-144.99;100.00;67352.69;5057263;28;19924;-81
2024/02/17 05:29:02;;;;;;;;;;;;;;;-144.99;100.00;67352.69;5056790;28;19932;-81
2024/02/17 05:31:28;;;;;;;;;;;;;;;-144.99;100.00;67352.69;5056794;28;19913;-81
2024/02/17 05:33:53;;;;;;;;;;;;;;;-144.99;100.00;67352.69;5056278;28;19916;-82
2024/02/17 05:36:18;;;;;;;;;;;;;;;-144.99;100.00;67352.69;5052222;28;19913;-80
2024/02/17 05:38:44;;;;;;;;;;;;;;;-144.99;100.00;67352.69;5054282;28;20305;-80
2024/02/17 05:41:09;;;;;;;;;;;;;;;-144.99;100.00;67352.69;5053965;28;20206;-80
2024/02/17 05:43:34;;;;;;;;;;;;;;;-144.99;100.00;67352.69;5053731;28;19959;-79
2024/02/17 05:46:00;;;;;;;;;;;;;;;-144.99;100.00;67352.69;5052861;28;19921;-79
2024/02/17 05:48:25;;;;;;;;;;;;;;;-144.99;100.00;67352.69;5054528;28;20003;-80
2024/02/17 05:50:52;;;;;;;;;;;;;;;-144.99;100.00;67352.69;5052262;28;19913;-79
2024/02/17 05:53:18;;;;;;;;;;;;;;;-144.99;100.00;67352.69;5052597;28;20193;-79
2024/02/17 05:55:44;;;;;;;;;;;;;;;-144.99;100.00;67352.69;5052416;28;20264;-80
2024/02/17 05:58:09;;;;;;;;;;;;;;;-144.99;100.00;67352.69;5053152;28;19919;-79
2024/02/17 06:00:34;;;;;;;;;;;;;;;-144.99;100.00;67352.69;5052475;28;19919;-80
2024/02/17 06:03:00;;;;;;;;;;;;;;;-144.99;100.00;67352.69;5052235;28;19932;-80
2024/02/17 06:05:25;;;;;;;;;;;;;;;-144.99;100.00;67352.69;5053510;28;20335;-80
2024/02/17 06:07:50;;;;;;;;;;;;;;;-144.99;100.00;67352.69;5051533;28;19917;-80
2024/02/17 06:10:15;;;;;;;;;;;;;;;-144.99;100.00;67352.69;5052124;28;20007;-80
2024/02/17 06:12:41;;;;;;;;;;;;;;;-144.99;100.00;67352.69;5053710;28;19920;-80
2024/02/17 06:15:07;;;;;;;;;;;;;;;-144.99;100.00;67352.69;5052028;28;19948;-80
2024/02/17 06:17:33;;;;;;;;;;;;;;;-144.99;100.00;67352.69;5051378;28;20314;-79
2024/02/17 06:22:42;;;;;;;;;;;;;;;-144.99;100.00;67352.69;5053320;28;19970;-83
2024/02/17 06:25:08;;;;;;;;;;;;;;;-144.99;100.00;67352.69;5044825;28;19913;-83
2024/02/17 06:27:33;;;;;;;;;;;;;;;-144.99;100.00;67352.69;5052188;28;20433;-80
2024/02/17 06:29:58;;;;;;;;;;;;;;;-144.99;100.00;67352.69;5052441;28;19923;-80
2024/02/17 06:32:23;;;;;;;;;;;;;;;-144.99;100.00;67352.69;5051845;28;19916;-81
2024/02/17 06:34:49;;;;;;;;;;;;;;;-144.99;100.00;67352.69;5053149;28;19920;-80
2024/02/17 06:37:15;;;;;;;;;;;;;;;-144.99;100.00;67352.69;5052338;28;20410;-80
2024/02/17 06:39:40;;;;;;;;;;;;;;;-144.99;100.00;67352.69;5051945;28;19966;-80
2024/02/17 06:42:06;;;;;;;;;;;;;;;-144.99;100.00;67352.69;5051852;28;19916;-80
2024/02/17 06:44:31;;;;;;;;;;;;;;;-144.99;100.00;67352.69;5051666;28;20391;-80
2024/02/17 06:46:56;;;;;;;;;;;;;;;-144.99;100.00;67352.69;5050255;28;19917;-80
2024/02/17 06:49:21;;;;;;;;;;;;;;;-144.99;100.00;67352.69;5051883;28;19924;-80
2024/02/17 06:51:46;;;;;;;;;;;;;;;-144.99;100.00;67352.69;5050819;28;19920;-80
2024/02/17 06:54:12;;;;;;;;;;;;;;;-144.99;100.00;67352.69;5052795;28;19944;-80
2024/02/17 06:56:37;;;;;;;;;;;;;;;-144.99;100.00;67352.69;5050449;28;19916;-80
2024/02/17 06:59:02;;;;;;;;;;;;;;;-144.99;100.00;67352.69;5049343;28;19935;-81
2024/02/17 07:01:27;;;;;;;;;;;;;;;-144.99;100.00;67352.69;5048865;28;19913;-80
2024/02/17 07:03:53;;;;;;;;;;;;;;;-144.99;100.00;67352.69;5051024;28;19938;-80
2024/02/17 07:06:18;;;;;;;;;;;;;;;-144.99;100.00;67352.69;5051978;28;19951;-81
2024/02/17 07:08:46;;;;;;;;;;;;;;;-144.99;100.00;67352.69;5051999;28;19948;-80
2024/02/17 07:11:11;;;;;;;;;;;;;;;-144.99;100.00;67352.69;5045967;28;19916;-80
2024/02/17 07:13:37;;;;;;;;;;;;;;;-144.99;100.00;67352.69;5051233;28;20293;-80
2024/02/17 07:16:02;;;;;;;;;;;;;;;-144.99;100.00;67352.69;5051496;28;19921;-80
2024/02/17 07:18:27;;;;;;;;;;;;;;;-144.99;100.00;67352.69;5052363;28;20320;-80
2024/02/17 07:20:52;;;;;;;;;;;;;;;-144.99;100.00;67352.69;5052130;28;19955;-80
2024/02/17 07:23:18;;;;;;;;;;;;;;;-144.99;100.00;67352.69;5052081;28;20291;-80
2024/02/17 07:25:44;;;;;;;;;;;;;;;-144.99;100.00;67352.69;5052472;28;19962;-80
2024/02/17 07:28:12;;;;;;;;;;;;;;;-144.99;100.00;67352.69;5050262;28;20011;-80
2024/02/17 07:30:39;;;;;;;;;;;;;;;-144.99;100.00;67352.69;5052328;28;19913;-80
2024/02/17 07:33:05;;;;;;;;;;;;;;;-144.99;100.00;67352.69;5051040;28;19921;-80
2024/02/17 07:35:30;;;;;;;;;;;;;;;-144.99;100.00;67352.69;5052244;28;20422;-80
2024/02/17 07:37:55;;;;;;;;;;;;;;;-144.99;100.00;67352.69;5051611;28;20330;-80
2024/02/17 07:40:20;;;;;;;;;;;;;;;-144.99;100.00;67352.69;5046302;28;19923;-80
2024/02/17 07:42:47;;;;;;;;;;;;;;;-144.99;100.00;67352.69;5050887;28;19955;-80
2024/02/17 07:45:12;;;;;;;;;;;;;;;-144.99;100.00;67352.69;5051130;28;20012;-81
2024/02/17 07:47:37;;;;;;;;;;;;;;;-144.99;100.00;67352.69;5056222;28;19956;-82
2024/02/17 07:50:04;;;;;;;;;;;;;;;-144.99;100.00;67352.69;5055752;28;19916;-81
2024/02/17 07:52:29;;;;;;;;;;;;;;;-144.99;100.00;67352.69;5057119;28;20378;-81
2024/02/17 07:54:54;;;;;;;;;;;;;;;-144.99;100.00;67352.69;5055990;28;19913;-81
2024/02/17 07:57:20;;;;;;;;;;;;;;;-144.99;100.00;67352.69;5054015;28;19919;-81
2024/02/17 07:59:45;;;;;;;;;;;;;;;-144.99;100.00;67352.69;5055299;28;19913;-81
2024/02/17 08:02:10;;;;;;;;;;;;;;;-144.99;100.00;67352.69;5054992;28;19916;-81
2024/02/17 08:04:36;;;;;;;;;;;;;;;-144.99;100.00;67352.69;5057778;28;19992;-81
2024/02/17 08:07:01;;;;;;;;;;;;;;;-144.99;100.00;67352.69;5056735;28;19952;-83
2024/02/17 08:09:31;;;;;;;;;;;;;;;-144.99;100.00;67352.69;5056963;28;19939;-80
2024/02/17 08:11:56;;;;;;;;;;;;;;;-144.99;100.00;67352.69;5055129;28;20003;-80
2024/02/17 08:14:21;;;;;;;;;;;;;;;-144.99;100.00;67352.69;5057263;28;19995;-80
2024/02/17 08:16:49;;;;;;;;;;;;;;;-144.99;100.00;67352.69;5057076;28;19923;-80
2024/02/17 08:19:15;;;;;;;;;;;;;;;-144.99;100.00;67352.69;5057779;28;19912;-81
2024/02/17 08:21:40;;;;;;;;;;;;;;;-144.99;100.00;67352.69;5059082;28;19924;-80
2024/02/17 08:24:05;;;;;;;;;;;;;;;-144.99;100.00;67352.69;5058581;28;20000;-81
2024/02/17 08:26:33;;;;;;;;;;;;;;;-144.99;100.00;67352.69;5057336;28;19999;-81
2024/02/17 08:28:59;;;;;;;;;;;;;;;-144.99;100.00;67352.69;5057406;28;19944;-79
2024/02/17 08:31:24;;;;;;;;;;;;;;;-144.99;100.00;67352.69;5057283;28;20402;-81
2024/02/17 08:33:49;;;;;;;;;;;;;;;-144.99;100.00;67352.69;5056676;28;20383;-81
2024/02/17 08:36:15;;;;;;;;;;;;;;;-144.99;100.00;67352.69;5057350;28;20291;-80
2024/02/17 08:38:41;;;;;;;;;;;;;;;-144.99;100.00;67352.69;5056865;28;19970;-80
2024/02/17 08:41:06;;;;;;;;;;;;;;;-144.99;100.00;67352.69;5051556;28;19912;-80
2024/02/17 08:43:31;;;;;;;;;;;;;;;-144.99;100.00;67352.69;5056532;28;19962;-80
2024/02/17 08:45:56;;;;;;;;;;;;;;;-144.99;100.00;67352.69;5056346;28;20386;-80
2024/02/17 08:48:22;;;;;;;;;;;;;;;-144.99;100.00;67352.69;5055893;28;19948;-80
2024/02/17 08:50:48;;;;;;;;;;;;;;;-144.99;100.00;67352.69;5057523;28;19974;-81
2024/02/17 08:53:13;;;;;;;;;;;;;;;-144.99;100.00;67352.69;5057509;28;19912;-80
2024/02/17 08:55:38;;;;;;;;;;;;;;;-144.99;100.00;67352.69;5056990;28;19920;-80
2024/02/17 08:58:03;;;;;;;;;;;;;;;-144.99;100.00;67352.69;5056714;28;19916;-80
2024/02/17 09:00:29;;;;;;;;;;;;;;;-144.99;100.00;67352.69;5057057;28;20391;-80
2024/02/17 09:02:54;;;;;;;;;;;;;;;-144.99;100.00;67352.69;5055347;28;19917;-79
2024/02/17 09:05:19;;;;;;;;;;;;;;;-144.99;100.00;67352.69;5053146;28;19922;-80
2024/02/17 09:07:44;;;;;;;;;;;;;;;-144.99;100.00;67352.69;5052136;28;20012;-79
2024/02/17 09:10:15;;;;;;;;;;;;;;;-144.99;100.00;67352.69;5053859;28;20360;-79
2024/02/17 09:12:40;;;;;;;;;;;;;;;-144.99;100.00;67352.69;5053204;28;19916;-80
2024/02/17 09:15:06;;;;;;;;;;;;;;;-144.99;100.00;67352.69;5052548;28;19923;-79
2024/02/17 09:17:31;;;;;;;;;;;;;;;-144.99;100.00;67352.69;5052500;28;19963;-79
2024/02/17 09:19:56;;;;;;;;;;;;;;;-144.99;100.00;67352.69;5054722;28;19948;-78
2024/02/17 09:22:22;;;;;;;;;;;;;;;-144.99;100.00;67352.69;5053658;28;20257;-79
2024/02/17 09:24:47;;;;;;;;;;;;;;;-144.99;100.00;67352.69;5054485;28;19913;-79
2024/02/17 09:27:14;;;;;;;;;;;;;;;-144.99;100.00;67352.69;5052648;28;19924;-79
2024/02/17 09:29:40;;;;;;;;;;;;;;;-144.99;100.00;67352.69;5048753;28;20011;-79
2024/02/17 09:32:06;;;;;;;;;;;;;;;-144.99;100.00;67352.69;5053852;28;19951;-79
2024/02/17 09:34:31;;;;;;;;;;;;;;;-144.99;100.00;67352.69;5043663;28;20347;-79
2024/02/17 09:36:57;;;;;;;;;;;;;;;-144.99;100.00;67352.69;5052274;28;19912;-79
2024/02/17 09:39:24;;;;;;;;;;;;;;;-144.99;100.00;67352.69;5056118;28;19913;-79
2024/02/17 09:41:49;;;;;;;;;;;;;;;-144.99;100.00;67352.69;5051854;28;20004;-78
2024/02/17 09:44:14;;;;;;;;;;;;;;;-144.99;100.00;67352.69;5053087;28;20361;-79
2024/02/17 09:46:39;;;;;;;;;;;;;;;-144.99;100.00;67352.69;5051896;28;19917;-79
2024/02/17 09:49:06;;;;;;;;;;;;;;;-144.99;100.00;67352.69;5048341;28;20376;-79
2024/02/17 09:51:31;;;;;;;;;;;;;;;-144.99;100.00;67352.69;5052926;28;19952;-79
2024/02/17 09:53:57;;;;;;;;;;;;;;;-144.99;100.00;67352.69;5050446;28;19956;-79
2024/02/17 09:56:26;;;;;;;;;;;;;;;-144.99;100.00;67352.69;5050849;28;20295;-80
2024/02/17 09:58:51;;;;;;;;;;;;;;;-144.99;100.00;67352.69;5050553;28;20375;-79
2024/02/17 10:01:16;;;;;;;;;;;;;;;-144.99;100.00;67352.69;5054191;28;19912;-79
2024/02/17 10:03:42;;;;;;;;;;;;;;;-144.99;100.00;67352.69;5054255;28;19947;-79
2024/02/17 10:06:11;;;;;;;;;;;;;;;-144.99;100.00;67352.69;5052110;28;19913;-79
2024/02/17 10:08:37;;;;;;;;;;;;;;;-144.99;100.00;67352.69;5045054;28;20667;-79
2024/02/17 10:11:02;;;;;;;;;;;;;;;-144.99;100.00;67352.69;5045945;28;20043;-80
2024/02/17 10:13:28;;;;;;;;;;;;;;;-144.99;100.00;67352.69;5049441;28;19917;-79
2024/02/17 10:15:53;;;;;;;;;;;;;;;-144.99;100.00;67352.69;5046300;28;20000;-78
2024/02/17 10:18:18;;;;;;;;;;;;;;;-144.99;100.00;67352.69;5047140;28;20418;-78
2024/02/17 10:20:43;;;;;;;;;;;;;;;-144.99;100.00;67352.69;5044238;28;20276;-79
2024/02/17 10:23:08;;;;;;;;;;;;;;;-144.99;100.00;67352.69;5046671;28;19924;-79
2024/02/17 10:25:34;;;;;;;;;;;;;;;-144.99;100.00;67352.69;5041191;28;19928;-79
2024/02/17 10:28:01;;;;;;;;;;;;;;;-144.99;100.00;67352.69;5046076;28;19927;-79
2024/02/17 10:30:27;;;;;;;;;;;;;;;-144.99;100.00;67352.69;5053328;28;19921;-79
2024/02/17 10:32:52;;;;;;;;;;;;;;;-144.99;100.00;67352.69;5052444;28;20371;-79
2024/02/17 10:35:18;;;;;;;;;;;;;;;-144.99;100.00;67352.69;5050309;28;19917;-82
2024/02/17 10:37:47;;;;;;;;;;;;;;;-144.99;100.00;67352.69;5052508;28;20253;-80
2024/02/17 10:40:14;;;;;;;;;;;;;;;-144.99;100.00;67352.69;5052381;28;20300;-80
2024/02/17 10:42:39;;;;;;;;;;;;;;;-144.99;100.00;67352.69;5049190;28;20383;-82
2024/02/17 10:45:04;;;;;;;;;;;;;;;-144.99;100.00;67352.69;5055480;28;19939;-81
2024/02/17 10:47:34;;;;;;;;;;;;;;;-144.99;100.00;67352.69;5054169;28;20391;-81
2024/02/17 10:50:14;;;;;;;;;;;;;;;-144.99;100.00;67352.69;5056550;28;19913;-83
2024/02/17 10:52:43;;;;;;;;;;;;;;;-144.99;100.00;67352.69;5055596;28;20283;-83
2024/02/17 10:55:12;;;;;;;;;;;;;;;-144.99;100.00;67352.69;5056777;28;19913;-81
2024/02/17 10:57:56;;;;;;;;;;;;;;;-144.99;100.00;67352.69;5054674;28;19916;-82
2024/02/17 11:00:22;;;;;;;;;;;;;;;-144.99;100.00;67352.69;5051793;28;20387;-81
2024/02/17 11:02:48;;;;;;;;;;;;;;;-144.99;100.00;67352.69;5055762;28;19967;-82
2024/02/17 11:05:14;;;;;;;;;;;;;;;-144.99;100.00;67352.69;5056010;28;19913;-81
2024/02/17 11:07:40;;;;;;;;;;;;;;;-144.99;100.00;67352.69;5057036;28;19924;-82
2024/02/17 11:10:05;;;;;;;;;;;;;;;-144.99;100.00;67352.69;5057580;28;20444;-82
2024/02/17 11:12:34;;;;;;;;;;;;;;;-144.99;100.00;67352.69;5056558;28;20011;-81
2024/02/17 11:15:00;;;;;;;;;;;;;;;-144.99;100.00;67352.69;5055134;28;20372;-82
2024/02/17 11:17:29;;;;;;;;;;;;;;;-144.99;100.00;67352.69;5054310;28;19912;-82
2024/02/17 11:20:04;;;;;;;;;;;;;;;-144.99;100.00;67352.69;5056843;28;19917;-82
2024/02/17 11:22:30;;;;;;;;;;;;;;;-144.99;100.00;67352.69;5054966;28;19966;-82
2024/02/17 11:24:55;;;;;;;;;;;;;;;-144.99;100.00;67352.69;5042739;28;19921;-81
2024/02/17 11:27:20;;;;;;;;;;;;;;;-144.99;100.00;67352.69;5042282;28;19932;-81
2024/02/17 11:29:45;;;;;;;;;;;;;;;-144.99;100.00;67352.69;5052190;28;19924;-82
2024/02/17 11:32:13;;;;;;;;;;;;;;;-144.99;100.00;67352.69;5053856;28;19913;-81
2024/02/17 11:34:39;;;;;;;;;;;;;;;-144.99;100.00;67352.69;5055140;28;19963;-82
2024/02/17 11:37:06;;;;;;;;;;;;;;;-144.99;100.00;67352.69;5052210;28;19924;-82
2024/02/17 11:39:31;;;;;;;;;;;;;;;-144.99;100.00;67352.69;5053931;28;19913;-82
2024/02/17 11:41:58;;;;;;;;;;;;;;;-144.99;100.00;67352.69;5053098;28;19967;-82
2024/02/17 11:44:24;;;;;;;;;;;;;;;-144.99;100.00;67352.69;5052865;28;19913;-83
2024/02/17 11:46:49;;;;;;;;;;;;;;;-144.99;100.00;67352.69;5053472;28;20011;-82
2024/02/17 11:49:20;;;;;;;;;;;;;;;-144.99;100.00;67352.69;5054069;28;19995;-80
2024/02/17 11:51:45;;;;;;;;;;;;;;;-144.99;100.00;67352.69;5053765;28;19971;-80
2024/02/17 11:54:16;;;;;;;;;;;;;;;-144.99;100.00;67352.69;5052659;28;20295;-81
2024/02/17 11:56:42;;;;;;;;;;;;;;;-144.99;100.00;67352.69;5052479;28;19913;-82
2024/02/17 11:59:08;;;;;;;;;;;;;;;-144.99;100.00;67352.69;5052126;28;19919;-82
2024/02/17 12:01:37;;;;;;;;;;;;;;;-144.99;100.00;67352.69;5052310;28;19920;-82
2024/02/17 12:04:03;;;;;;;;;;;;;;;-144.99;100.00;67352.69;5053258;28;19936;-82
2024/02/17 12:06:28;;;;;;;;;;;;;;;-144.99;100.00;67352.69;5051088;28;19920;-82
2024/02/17 12:08:53;;;;;;;;;;;;;;;-144.99;100.00;67352.69;5051766;28;20015;-81
2024/02/17 12:11:19;;;;;;;;;;;;;;;-144.99;100.00;67352.69;5052063;28;19917;-81
2024/02/17 12:13:44;;;;;;;;;;;;;;;-144.99;100.00;67352.69;5051244;28;19917;-82